sensor_id;sensor_type;location;lat;lon;timestamp;pressure;altitude;pressure_sealevel;temperature;humidity
29359;BME280;16347;53.232;6.556;2022-07-23T00:00:49;101928.19;;;19.98;52.10
29359;BME280;16347;53.232;6.556;2022-07-23T00:03:17;101925.91;;;20.02;52.25
29359;BME280;16347;53.232;6.556;2022-07-23T00:05:46;101922.69;;;19.98;53.00
29359;BME280;16347;53.232;6.556;2022-07-23T00:08:14;101921.16;;;19.95;52.80
29359;BME280;16347;53.232;6.556;2022-07-23T00:10:42;101926.50;;;19.97;53.15
29359;BME280;16347;53.232;6.556;2022-07-23T00:13:10;101924.63;;;19.98;53.04
29359;BME280;16347;53.232;6.556;2022-07-23T00:15:38;101917.16;;;19.98;53.05
29359;BME280;16347;53.232;6.556;2022-07-23T00:18:06;101915.19;;;19.92;52.81
29359;BME280;16347;53.232;6.556;2022-07-23T00:20:34;101919.84;;;19.91;53.18
29359;BME280;16347;53.232;6.556;2022-07-23T00:23:04;101917.28;;;19.90;53.27
29359;BME280;16347;53.232;6.556;2022-07-23T00:25:32;101921.78;;;19.91;53.35
29359;BME280;16347;53.232;6.556;2022-07-23T00:28:00;101928.50;;;19.88;53.28
29359;BME280;16347;53.232;6.556;2022-07-23T00:30:30;101919.13;;;19.83;52.83
29359;BME280;16347;53.232;6.556;2022-07-23T00:33:00;101916.25;;;19.91;53.21
29359;BME280;16347;53.232;6.556;2022-07-23T00:35:31;101911.94;;;19.88;53.13
29359;BME280;16347;53.232;6.556;2022-07-23T00:38:01;101910.91;;;19.89;53.18
29359;BME280;16347;53.232;6.556;2022-07-23T00:40:31;101911.69;;;19.83;53.50
29359;BME280;16347;53.232;6.556;2022-07-23T00:42:59;101909.09;;;19.82;53.34
29359;BME280;16347;53.232;6.556;2022-07-23T00:45:28;101911.00;;;19.81;53.27
29359;BME280;16347;53.232;6.556;2022-07-23T00:47:56;101904.66;;;19.81;53.17
29359;BME280;16347;53.232;6.556;2022-07-23T00:50:24;101911.22;;;19.80;53.93
29359;BME280;16347;53.232;6.556;2022-07-23T00:52:53;101904.44;;;19.82;53.82
29359;BME280;16347;53.232;6.556;2022-07-23T00:55:21;101909.59;;;19.85;54.07
29359;BME280;16347;53.232;6.556;2022-07-23T00:57:51;101912.16;;;19.87;53.81
29359;BME280;16347;53.232;6.556;2022-07-23T01:00:20;101907.03;;;19.69;53.38
29359;BME280;16347;53.232;6.556;2022-07-23T01:02:49;101910.19;;;19.81;54.34
29359;BME280;16347;53.232;6.556;2022-07-23T01:05:17;101906.81;;;19.85;53.96
29359;BME280;16347;53.232;6.556;2022-07-23T01:07:49;101896.53;;;19.94;54.18
29359;BME280;16347;53.232;6.556;2022-07-23T01:10:22;101897.66;;;20.00;53.85
29359;BME280;16347;53.232;6.556;2022-07-23T01:13:02;101886.44;;;20.01;53.81
29359;BME280;16347;53.232;6.556;2022-07-23T01:15:31;101886.03;;;20.04;53.71
29359;BME280;16347;53.232;6.556;2022-07-23T01:18:00;101889.06;;;20.09;53.79
29359;BME280;16347;53.232;6.556;2022-07-23T01:20:29;101884.97;;;20.05;53.61
29359;BME280;16347;53.232;6.556;2022-07-23T01:22:58;101884.56;;;20.08;53.36
29359;BME280;16347;53.232;6.556;2022-07-23T01:25:26;101880.50;;;20.04;53.50
29359;BME280;16347;53.232;6.556;2022-07-23T01:27:58;101877.53;;;20.06;53.08
29359;BME280;16347;53.232;6.556;2022-07-23T01:30:26;101882.59;;;20.02;53.34
29359;BME280;16347;53.232;6.556;2022-07-23T01:32:55;101879.19;;;20.00;53.47
29359;BME280;16347;53.232;6.556;2022-07-23T01:35:23;101872.16;;;19.98;54.05
29359;BME280;16347;53.232;6.556;2022-07-23T01:37:56;101867.09;;;20.01;53.81
29359;BME280;16347;53.232;6.556;2022-07-23T01:40:25;101869.47;;;20.04;54.07
29359;BME280;16347;53.232;6.556;2022-07-23T01:42:54;101863.75;;;20.06;54.02
29359;BME280;16347;53.232;6.556;2022-07-23T01:45:22;101866.97;;;20.09;54.20
29359;BME280;16347;53.232;6.556;2022-07-23T01:47:51;101866.16;;;20.15;54.10
29359;BME280;16347;53.232;6.556;2022-07-23T01:50:19;101858.09;;;20.14;53.37
29359;BME280;16347;53.232;6.556;2022-07-23T01:53:06;101857.63;;;20.10;53.89
29359;BME280;16347;53.232;6.556;2022-07-23T01:55:37;101862.69;;;20.07;53.78
29359;BME280;16347;53.232;6.556;2022-07-23T01:58:05;101855.44;;;20.06;53.96
29359;BME280;16347;53.232;6.556;2022-07-23T02:00:33;101860.97;;;20.06;54.28
29359;BME280;16347;53.232;6.556;2022-07-23T02:03:01;101852.69;;;20.06;54.35
29359;BME280;16347;53.232;6.556;2022-07-23T02:05:29;101863.34;;;20.09;53.89
29359;BME280;16347;53.232;6.556;2022-07-23T02:07:58;101855.44;;;20.06;54.16
29359;BME280;16347;53.232;6.556;2022-07-23T02:10:32;101844.56;;;19.98;54.77
29359;BME280;16347;53.232;6.556;2022-07-23T02:13:04;101838.63;;;20.01;54.87
29359;BME280;16347;53.232;6.556;2022-07-23T02:15:33;101842.25;;;20.01;54.61
29359;BME280;16347;53.232;6.556;2022-07-23T02:18:01;101845.03;;;20.01;54.83
29359;BME280;16347;53.232;6.556;2022-07-23T02:20:30;101855.97;;;19.94;54.71
29359;BME280;16347;53.232;6.556;2022-07-23T02:22:58;101845.31;;;19.91;54.78
29359;BME280;16347;53.232;6.556;2022-07-23T02:25:27;101846.50;;;19.82;54.85
29359;BME280;16347;53.232;6.556;2022-07-23T02:28:00;101840.25;;;19.74;55.48
29359;BME280;16347;53.232;6.556;2022-07-23T02:30:30;101835.56;;;19.74;55.45
29359;BME280;16347;53.232;6.556;2022-07-23T02:32:58;101839.97;;;19.69;55.04
29359;BME280;16347;53.232;6.556;2022-07-23T02:35:26;101846.84;;;19.58;55.55
29359;BME280;16347;53.232;6.556;2022-07-23T02:37:56;101848.72;;;19.58;55.86
29359;BME280;16347;53.232;6.556;2022-07-23T02:40:26;101844.28;;;19.57;56.46
29359;BME280;16347;53.232;6.556;2022-07-23T02:42:54;101845.63;;;19.61;55.92
29359;BME280;16347;53.232;6.556;2022-07-23T02:45:22;101843.50;;;19.63;56.11
29359;BME280;16347;53.232;6.556;2022-07-23T02:47:52;101843.03;;;19.59;55.98
29359;BME280;16347;53.232;6.556;2022-07-23T02:50:21;101838.38;;;19.45;56.33
29359;BME280;16347;53.232;6.556;2022-07-23T02:52:50;101852.78;;;19.40;56.23
29359;BME280;16347;53.232;6.556;2022-07-23T02:55:18;101847.16;;;19.34;56.08
29359;BME280;16347;53.232;6.556;2022-07-23T02:57:46;101848.97;;;19.27;56.53
29359;BME280;16347;53.232;6.556;2022-07-23T03:00:14;101857.41;;;19.25;56.63
29359;BME280;16347;53.232;6.556;2022-07-23T03:02:42;101858.81;;;19.21;56.75
29359;BME280;16347;53.232;6.556;2022-07-23T03:05:11;101861.88;;;19.12;56.82
29359;BME280;16347;53.232;6.556;2022-07-23T03:07:39;101857.50;;;19.03;57.88
29359;BME280;16347;53.232;6.556;2022-07-23T03:10:08;101856.25;;;18.90;57.64
29359;BME280;16347;53.232;6.556;2022-07-23T03:12:36;101847.50;;;18.87;57.95
29359;BME280;16347;53.232;6.556;2022-07-23T03:15:05;101845.97;;;18.70;58.23
29359;BME280;16347;53.232;6.556;2022-07-23T03:17:33;101846.25;;;18.75;58.12
29359;BME280;16347;53.232;6.556;2022-07-23T03:20:03;101843.91;;;18.86;57.88
29359;BME280;16347;53.232;6.556;2022-07-23T03:22:33;101846.28;;;18.89;57.87
29359;BME280;16347;53.232;6.556;2022-07-23T03:25:03;101853.38;;;18.84;57.61
29359;BME280;16347;53.232;6.556;2022-07-23T03:27:34;101845.31;;;18.97;57.58
29359;BME280;16347;53.232;6.556;2022-07-23T03:30:04;101840.97;;;19.03;57.94
29359;BME280;16347;53.232;6.556;2022-07-23T03:32:33;101858.16;;;18.90;57.66
29359;BME280;16347;53.232;6.556;2022-07-23T03:35:01;101854.44;;;18.83;57.78
29359;BME280;16347;53.232;6.556;2022-07-23T03:37:34;101851.00;;;18.81;57.98
29359;BME280;16347;53.232;6.556;2022-07-23T03:40:02;101850.53;;;18.77;57.47
29359;BME280;16347;53.232;6.556;2022-07-23T03:42:31;101846.97;;;18.54;58.28
29359;BME280;16347;53.232;6.556;2022-07-23T03:44:59;101851.31;;;18.49;58.59
29359;BME280;16347;53.232;6.556;2022-07-23T03:47:28;101847.56;;;18.41;58.39
29359;BME280;16347;53.232;6.556;2022-07-23T03:49:57;101850.88;;;18.37;58.86
29359;BME280;16347;53.232;6.556;2022-07-23T03:52:25;101851.19;;;18.42;58.93
29359;BME280;16347;53.232;6.556;2022-07-23T03:54:55;101850.09;;;18.28;58.88
29359;BME280;16347;53.232;6.556;2022-07-23T03:57:24;101852.53;;;18.23;59.26
29359;BME280;16347;53.232;6.556;2022-07-23T03:59:52;101854.69;;;18.36;58.79
29359;BME280;16347;53.232;6.556;2022-07-23T04:02:20;101858.75;;;18.03;59.03
29359;BME280;16347;53.232;6.556;2022-07-23T04:04:49;101854.69;;;18.13;59.53
29359;BME280;16347;53.232;6.556;2022-07-23T04:07:17;101856.13;;;18.09;59.36
29359;BME280;16347;53.232;6.556;2022-07-23T04:09:45;101853.44;;;17.93;59.77
29359;BME280;16347;53.232;6.556;2022-07-23T04:12:15;101850.78;;;18.08;59.72
29359;BME280;16347;53.232;6.556;2022-07-23T04:14:43;101855.38;;;18.15;59.58
29359;BME280;16347;53.232;6.556;2022-07-23T04:17:11;101852.84;;;18.28;59.76
29359;BME280;16347;53.232;6.556;2022-07-23T04:19:41;101847.34;;;18.28;59.02
29359;BME280;16347;53.232;6.556;2022-07-23T04:22:12;101854.44;;;18.45;58.61
29359;BME280;16347;53.232;6.556;2022-07-23T04:24:41;101856.09;;;18.55;58.52
29359;BME280;16347;53.232;6.556;2022-07-23T04:27:09;101856.00;;;18.40;57.90
29359;BME280;16347;53.232;6.556;2022-07-23T04:29:40;101856.50;;;18.43;58.81
29359;BME280;16347;53.232;6.556;2022-07-23T04:32:08;101858.09;;;18.61;58.30
29359;BME280;16347;53.232;6.556;2022-07-23T04:34:37;101857.72;;;18.64;58.02
29359;BME280;16347;53.232;6.556;2022-07-23T04:37:05;101858.00;;;18.54;58.35
29359;BME280;16347;53.232;6.556;2022-07-23T04:39:35;101855.78;;;18.50;58.35
29359;BME280;16347;53.232;6.556;2022-07-23T04:42:03;101858.84;;;18.55;58.78
29359;BME280;16347;53.232;6.556;2022-07-23T04:44:31;101853.28;;;18.63;58.36
29359;BME280;16347;53.232;6.556;2022-07-23T04:47:02;101872.19;;;18.43;58.67
29359;BME280;16347;53.232;6.556;2022-07-23T04:49:32;101872.44;;;18.56;59.06
29359;BME280;16347;53.232;6.556;2022-07-23T04:52:00;101865.44;;;18.68;58.47
29359;BME280;16347;53.232;6.556;2022-07-23T04:54:28;101865.38;;;18.76;58.50
29359;BME280;16347;53.232;6.556;2022-07-23T04:56:56;101863.19;;;18.86;58.17
29359;BME280;16347;53.232;6.556;2022-07-23T04:59:25;101866.53;;;18.97;58.05
29359;BME280;16347;53.232;6.556;2022-07-23T05:01:58;101861.13;;;19.03;57.26
29359;BME280;16347;53.232;6.556;2022-07-23T05:04:27;101866.03;;;19.08;57.41
29359;BME280;16347;53.232;6.556;2022-07-23T05:06:56;101862.81;;;19.04;57.31
29359;BME280;16347;53.232;6.556;2022-07-23T05:09:24;101868.91;;;19.00;57.68
29359;BME280;16347;53.232;6.556;2022-07-23T05:11:52;101871.28;;;19.03;57.52
29359;BME280;16347;53.232;6.556;2022-07-23T05:14:21;101868.91;;;19.00;57.50
29359;BME280;16347;53.232;6.556;2022-07-23T05:16:50;101873.94;;;18.96;57.57
29359;BME280;16347;53.232;6.556;2022-07-23T05:19:22;101872.72;;;18.99;57.54
29359;BME280;16347;53.232;6.556;2022-07-23T05:21:53;101883.56;;;19.00;57.97
29359;BME280;16347;53.232;6.556;2022-07-23T05:24:21;101877.63;;;18.88;57.81
29359;BME280;16347;53.232;6.556;2022-07-23T05:26:50;101882.50;;;18.86;58.70
29359;BME280;16347;53.232;6.556;2022-07-23T05:29:19;101884.56;;;18.84;58.67
29359;BME280;16347;53.232;6.556;2022-07-23T05:31:47;101886.19;;;18.79;58.46
29359;BME280;16347;53.232;6.556;2022-07-23T05:34:15;101884.75;;;18.83;58.52
29359;BME280;16347;53.232;6.556;2022-07-23T05:36:45;101884.38;;;18.86;58.48
29359;BME280;16347;53.232;6.556;2022-07-23T05:39:15;101889.47;;;18.74;58.47
29359;BME280;16347;53.232;6.556;2022-07-23T05:41:43;101883.22;;;18.80;58.74
29359;BME280;16347;53.232;6.556;2022-07-23T05:44:12;101894.00;;;18.90;58.45
29359;BME280;16347;53.232;6.556;2022-07-23T05:46:42;101884.06;;;18.81;58.73
29359;BME280;16347;53.232;6.556;2022-07-23T05:49:16;101890.75;;;18.86;58.60
29359;BME280;16347;53.232;6.556;2022-07-23T05:52:03;101894.94;;;18.82;58.59
29359;BME280;16347;53.232;6.556;2022-07-23T05:54:53;101890.66;;;18.80;58.83
29359;BME280;16347;53.232;6.556;2022-07-23T05:57:21;101903.75;;;18.78;58.80
29359;BME280;16347;53.232;6.556;2022-07-23T05:59:51;101904.13;;;18.75;59.02
29359;BME280;16347;53.232;6.556;2022-07-23T06:02:19;101896.34;;;18.78;59.17
29359;BME280;16347;53.232;6.556;2022-07-23T06:04:47;101897.09;;;18.87;58.91
29359;BME280;16347;53.232;6.556;2022-07-23T06:07:35;101908.25;;;18.93;58.64
29359;BME280;16347;53.232;6.556;2022-07-23T06:10:06;101901.78;;;19.01;58.80
29359;BME280;16347;53.232;6.556;2022-07-23T06:12:35;101901.72;;;19.09;58.20
29359;BME280;16347;53.232;6.556;2022-07-23T06:15:06;101900.56;;;19.18;58.07
29359;BME280;16347;53.232;6.556;2022-07-23T06:17:37;101904.94;;;19.27;57.84
29359;BME280;16347;53.232;6.556;2022-07-23T06:20:07;101899.81;;;19.24;57.93
29359;BME280;16347;53.232;6.556;2022-07-23T06:22:38;101901.53;;;19.25;58.07
29359;BME280;16347;53.232;6.556;2022-07-23T06:25:08;101896.31;;;19.30;58.17
29359;BME280;16347;53.232;6.556;2022-07-23T06:27:45;101892.97;;;19.35;57.28
29359;BME280;16347;53.232;6.556;2022-07-23T06:30:13;101890.31;;;19.27;56.02
29359;BME280;16347;53.232;6.556;2022-07-23T06:32:44;101890.78;;;19.30;56.40
29359;BME280;16347;53.232;6.556;2022-07-23T06:35:13;101896.88;;;19.26;57.40
29359;BME280;16347;53.232;6.556;2022-07-23T06:37:42;101902.94;;;19.36;57.40
29359;BME280;16347;53.232;6.556;2022-07-23T06:40:13;101911.41;;;19.34;57.20
29359;BME280;16347;53.232;6.556;2022-07-23T06:42:41;101905.31;;;19.24;57.02
29359;BME280;16347;53.232;6.556;2022-07-23T06:45:16;101911.22;;;19.21;57.28
29359;BME280;16347;53.232;6.556;2022-07-23T06:47:46;101911.41;;;19.34;57.29
29359;BME280;16347;53.232;6.556;2022-07-23T06:50:14;101905.50;;;19.37;57.59
29359;BME280;16347;53.232;6.556;2022-07-23T06:52:42;101910.19;;;19.22;57.41
29359;BME280;16347;53.232;6.556;2022-07-23T06:55:10;101913.78;;;19.37;57.82
29359;BME280;16347;53.232;6.556;2022-07-23T06:57:39;101919.09;;;19.24;57.81
29359;BME280;16347;53.232;6.556;2022-07-23T07:00:08;101916.16;;;19.11;58.40
29359;BME280;16347;53.232;6.556;2022-07-23T07:02:36;101923.75;;;19.09;57.99
29359;BME280;16347;53.232;6.556;2022-07-23T07:05:05;101928.72;;;19.14;58.57
29359;BME280;16347;53.232;6.556;2022-07-23T07:07:34;101930.53;;;19.07;57.94
29359;BME280;16347;53.232;6.556;2022-07-23T07:10:02;101936.72;;;19.23;57.75
29359;BME280;16347;53.232;6.556;2022-07-23T07:12:30;101936.44;;;19.33;57.72
29359;BME280;16347;53.232;6.556;2022-07-23T07:15:00;101932.91;;;19.39;56.90
29359;BME280;16347;53.232;6.556;2022-07-23T07:17:28;101938.84;;;19.51;56.41
29359;BME280;16347;53.232;6.556;2022-07-23T07:19:56;101933.44;;;19.57;54.87
29359;BME280;16347;53.232;6.556;2022-07-23T07:22:23;101931.22;;;19.67;54.74
29359;BME280;16347;53.232;6.556;2022-07-23T07:24:51;101930.53;;;19.80;54.15
29359;BME280;16347;53.232;6.556;2022-07-23T07:27:20;101942.91;;;19.84;53.37
29359;BME280;16347;53.232;6.556;2022-07-23T07:29:47;101935.69;;;19.68;53.00
29359;BME280;16347;53.232;6.556;2022-07-23T07:32:17;101935.97;;;19.73;52.75
29359;BME280;16347;53.232;6.556;2022-07-23T07:35:06;101939.84;;;19.79;51.27
29359;BME280;16347;53.232;6.556;2022-07-23T07:37:34;101938.44;;;19.83;48.77
29359;BME280;16347;53.232;6.556;2022-07-23T07:40:03;101940.03;;;19.92;48.66
29359;BME280;16347;53.232;6.556;2022-07-23T07:42:31;101943.47;;;19.94;47.65
29359;BME280;16347;53.232;6.556;2022-07-23T07:44:59;101940.97;;;19.99;48.58
29359;BME280;16347;53.232;6.556;2022-07-23T07:47:28;101946.00;;;20.10;47.68
29359;BME280;16347;53.232;6.556;2022-07-23T07:49:56;101939.63;;;19.95;46.85
29359;BME280;16347;53.232;6.556;2022-07-23T07:52:24;101946.56;;;20.06;46.78
29359;BME280;16347;53.232;6.556;2022-07-23T07:54:52;101954.06;;;20.12;47.46
29359;BME280;16347;53.232;6.556;2022-07-23T07:57:20;101956.75;;;20.05;47.14
29359;BME280;16347;53.232;6.556;2022-07-23T07:59:48;101968.63;;;20.20;48.03
29359;BME280;16347;53.232;6.556;2022-07-23T08:02:22;101966.84;;;20.13;49.01
29359;BME280;16347;53.232;6.556;2022-07-23T08:04:52;101961.94;;;19.93;49.67
29359;BME280;16347;53.232;6.556;2022-07-23T08:07:19;101969.25;;;20.01;49.95
29359;BME280;16347;53.232;6.556;2022-07-23T08:09:47;101965.72;;;20.07;48.55
29359;BME280;16347;53.232;6.556;2022-07-23T08:12:15;101966.38;;;20.09;48.31
29359;BME280;16347;53.232;6.556;2022-07-23T08:14:43;101965.41;;;20.17;48.17
29359;BME280;16347;53.232;6.556;2022-07-23T08:17:11;101966.34;;;20.24;48.39
29359;BME280;16347;53.232;6.556;2022-07-23T08:19:41;101966.13;;;20.25;48.09
29359;BME280;16347;53.232;6.556;2022-07-23T08:22:10;101959.75;;;20.25;48.27
29359;BME280;16347;53.232;6.556;2022-07-23T08:24:38;101967.00;;;20.26;48.84
29359;BME280;16347;53.232;6.556;2022-07-23T08:27:06;101970.47;;;20.28;48.38
29359;BME280;16347;53.232;6.556;2022-07-23T08:29:34;101966.97;;;20.40;48.76
29359;BME280;16347;53.232;6.556;2022-07-23T08:32:02;101970.47;;;20.49;48.76
29359;BME280;16347;53.232;6.556;2022-07-23T08:34:50;101963.09;;;20.56;48.58
29359;BME280;16347;53.232;6.556;2022-07-23T08:37:19;101970.47;;;20.49;49.28
29359;BME280;16347;53.232;6.556;2022-07-23T08:39:47;101973.38;;;20.41;48.39
29359;BME280;16347;53.232;6.556;2022-07-23T08:42:15;101972.91;;;20.37;48.84
29359;BME280;16347;53.232;6.556;2022-07-23T08:44:45;101975.28;;;20.40;49.58
29359;BME280;16347;53.232;6.556;2022-07-23T08:47:14;101973.22;;;20.49;49.35
29359;BME280;16347;53.232;6.556;2022-07-23T08:49:44;101976.25;;;20.33;49.04
29359;BME280;16347;53.232;6.556;2022-07-23T08:52:14;101982.16;;;20.30;48.58
29359;BME280;16347;53.232;6.556;2022-07-23T08:54:44;101974.34;;;20.33;48.65
29359;BME280;16347;53.232;6.556;2022-07-23T08:57:12;101976.13;;;20.41;49.82
29359;BME280;16347;53.232;6.556;2022-07-23T08:59:40;101973.44;;;20.48;49.27
29359;BME280;16347;53.232;6.556;2022-07-23T09:02:09;101965.22;;;20.54;48.52
29359;BME280;16347;53.232;6.556;2022-07-23T09:04:37;101968.63;;;20.56;47.45
29359;BME280;16347;53.232;6.556;2022-07-23T09:07:05;101973.34;;;20.62;47.69
29359;BME280;16347;53.232;6.556;2022-07-23T09:09:33;101964.03;;;20.63;47.94
29359;BME280;16347;53.232;6.556;2022-07-23T09:12:08;101977.31;;;20.74;48.44
29359;BME280;16347;53.232;6.556;2022-07-23T09:14:38;101968.69;;;20.63;48.48
29359;BME280;16347;53.232;6.556;2022-07-23T09:17:11;101970.13;;;20.59;48.72
29359;BME280;16347;53.232;6.556;2022-07-23T09:19:40;101972.50;;;20.62;47.75
29359;BME280;16347;53.232;6.556;2022-07-23T09:22:21;101979.34;;;20.66;48.12
29359;BME280;16347;53.232;6.556;2022-07-23T09:25:09;101973.25;;;20.70;46.70
29359;BME280;16347;53.232;6.556;2022-07-23T09:27:49;101976.53;;;20.80;47.16
29359;BME280;16347;53.232;6.556;2022-07-23T09:30:22;101979.00;;;20.75;46.74
29359;BME280;16347;53.232;6.556;2022-07-23T09:33:07;101972.50;;;20.83;47.31
29359;BME280;16347;53.232;6.556;2022-07-23T09:35:49;101971.66;;;20.82;47.15
29359;BME280;16347;53.232;6.556;2022-07-23T09:38:19;101977.09;;;20.76;47.34
29359;BME280;16347;53.232;6.556;2022-07-23T09:41:05;101982.00;;;20.74;46.68
29359;BME280;16347;53.232;6.556;2022-07-23T09:43:36;101981.88;;;20.61;47.84
29359;BME280;16347;53.232;6.556;2022-07-23T09:46:17;101985.34;;;20.69;47.59
29359;BME280;16347;53.232;6.556;2022-07-23T09:48:46;101980.88;;;20.68;47.06
29359;BME280;16347;53.232;6.556;2022-07-23T09:51:14;101982.97;;;20.66;47.46
29359;BME280;16347;53.232;6.556;2022-07-23T09:53:43;101977.09;;;20.76;47.55
29359;BME280;16347;53.232;6.556;2022-07-23T09:56:13;101984.66;;;20.88;48.31
29359;BME280;16347;53.232;6.556;2022-07-23T10:01:14;101982.50;;;21.05;47.48
29359;BME280;16347;53.232;6.556;2022-07-23T10:03:43;101983.63;;;21.11;46.78
29359;BME280;16347;53.232;6.556;2022-07-23T10:06:38;101990.03;;;21.11;46.67
29359;BME280;16347;53.232;6.556;2022-07-23T10:09:42;101989.16;;;21.11;46.88
29359;BME280;16347;53.232;6.556;2022-07-23T10:12:27;101985.53;;;21.10;46.99
29359;BME280;16347;53.232;6.556;2022-07-23T10:15:20;101989.81;;;20.91;48.12
29359;BME280;16347;53.232;6.556;2022-07-23T10:17:48;101997.66;;;20.88;48.79
29359;BME280;16347;53.232;6.556;2022-07-23T10:20:16;101994.94;;;20.73;48.95
29359;BME280;16347;53.232;6.556;2022-07-23T10:22:53;102003.06;;;20.75;49.80
29359;BME280;16347;53.232;6.556;2022-07-23T10:25:32;102016.88;;;20.75;50.19
29359;BME280;16347;53.232;6.556;2022-07-23T10:28:38;102012.06;;;20.83;48.95
29359;BME280;16347;53.232;6.556;2022-07-23T10:31:20;102016.53;;;20.63;50.51
29359;BME280;16347;53.232;6.556;2022-07-23T10:34:19;102005.09;;;20.66;50.17
29359;BME280;16347;53.232;6.556;2022-07-23T10:36:53;102008.78;;;20.73;50.07
29359;BME280;16347;53.232;6.556;2022-07-23T10:39:24;102004.41;;;20.85;50.04
29359;BME280;16347;53.232;6.556;2022-07-23T10:42:07;102008.03;;;20.86;49.99
29359;BME280;16347;53.232;6.556;2022-07-23T10:44:39;102012.31;;;20.88;49.56
29359;BME280;16347;53.232;6.556;2022-07-23T10:47:10;102013.16;;;20.89;50.92
29359;BME280;16347;53.232;6.556;2022-07-23T10:50:16;102013.75;;;21.06;49.53
29359;BME280;16347;53.232;6.556;2022-07-23T10:55:49;102018.56;;;20.76;51.48
29359;BME280;16347;53.232;6.556;2022-07-23T10:58:20;102018.78;;;20.74;51.61
29359;BME280;16347;53.232;6.556;2022-07-23T11:00:49;102015.88;;;20.82;51.67
29359;BME280;16347;53.232;6.556;2022-07-23T11:03:35;102018.59;;;20.97;51.09
29359;BME280;16347;53.232;6.556;2022-07-23T11:06:06;102017.78;;;20.82;51.79
29359;BME280;16347;53.232;6.556;2022-07-23T11:08:34;102018.56;;;20.76;51.38
29359;BME280;16347;53.232;6.556;2022-07-23T11:11:10;102008.84;;;20.80;51.52
29359;BME280;16347;53.232;6.556;2022-07-23T11:13:40;102015.53;;;20.92;52.14
29359;BME280;16347;53.232;6.556;2022-07-23T11:16:13;102023.31;;;21.03;51.90
29359;BME280;16347;53.232;6.556;2022-07-23T11:18:59;102016.06;;;21.02;51.34
29359;BME280;16347;53.232;6.556;2022-07-23T11:21:42;102022.31;;;20.89;51.95
29359;BME280;16347;53.232;6.556;2022-07-23T11:24:11;102017.53;;;20.77;53.14
29359;BME280;16347;53.232;6.556;2022-07-23T11:26:45;102011.97;;;20.56;52.63
29359;BME280;16347;53.232;6.556;2022-07-23T11:32:32;102023.72;;;20.58;52.88
29359;BME280;16347;53.232;6.556;2022-07-23T11:35:18;102022.78;;;20.51;52.82
29359;BME280;16347;53.232;6.556;2022-07-23T11:37:47;102027.53;;;20.57;53.72
29359;BME280;16347;53.232;6.556;2022-07-23T11:40:16;102017.50;;;20.56;53.35
29359;BME280;16347;53.232;6.556;2022-07-23T11:42:52;102025.75;;;20.70;53.57
29359;BME280;16347;53.232;6.556;2022-07-23T11:45:21;102026.94;;;20.61;53.41
29359;BME280;16347;53.232;6.556;2022-07-23T11:47:50;102025.94;;;20.69;53.14
29359;BME280;16347;53.232;6.556;2022-07-23T11:50:23;102018.56;;;20.76;52.59
29359;BME280;16347;53.232;6.556;2022-07-23T11:52:52;102020.09;;;20.78;52.67
29359;BME280;16347;53.232;6.556;2022-07-23T11:55:20;102023.47;;;20.74;52.58
29359;BME280;16347;53.232;6.556;2022-07-23T11:57:50;102023.66;;;20.93;53.06
29359;BME280;16347;53.232;6.556;2022-07-23T12:00:21;102019.50;;;20.83;51.53
29359;BME280;16347;53.232;6.556;2022-07-23T12:02:51;102018.78;;;21.17;51.30
29359;BME280;16347;53.232;6.556;2022-07-23T12:05:23;102016.59;;;21.33;50.08
29359;BME280;16347;53.232;6.556;2022-07-23T12:07:53;102023.44;;;21.37;50.25
29359;BME280;16347;53.232;6.556;2022-07-23T12:10:25;102022.28;;;21.25;50.02
29359;BME280;16347;53.232;6.556;2022-07-23T12:12:54;102016.34;;;21.28;49.97
29359;BME280;16347;53.232;6.556;2022-07-23T12:15:26;102020.06;;;21.42;51.06
29359;BME280;16347;53.232;6.556;2022-07-23T12:17:56;102014.41;;;21.57;50.26
29359;BME280;16347;53.232;6.556;2022-07-23T12:20:28;102013.81;;;21.61;50.87
29359;BME280;16347;53.232;6.556;2022-07-23T12:22:58;102019.88;;;21.78;49.37
29359;BME280;16347;53.232;6.556;2022-07-23T12:25:28;102012.59;;;21.70;48.96
29359;BME280;16347;53.232;6.556;2022-07-23T12:28:03;102021.06;;;21.62;49.20
29359;BME280;16347;53.232;6.556;2022-07-23T12:30:33;102022.16;;;21.68;48.81
29359;BME280;16347;53.232;6.556;2022-07-23T12:33:02;102011.34;;;21.79;48.58
29359;BME280;16347;53.232;6.556;2022-07-23T12:35:34;102012.66;;;21.83;48.79
29359;BME280;16347;53.232;6.556;2022-07-23T12:38:04;102020.31;;;21.81;47.97
29359;BME280;16347;53.232;6.556;2022-07-23T12:40:34;102015.69;;;21.88;47.71
29359;BME280;16347;53.232;6.556;2022-07-23T12:43:04;102014.97;;;22.08;47.20
29359;BME280;16347;53.232;6.556;2022-07-23T12:45:45;102007.31;;;22.16;47.62
29359;BME280;16347;53.232;6.556;2022-07-23T12:48:19;102004.19;;;22.32;46.27
29359;BME280;16347;53.232;6.556;2022-07-23T12:50:54;102012.13;;;22.48;46.62
29359;BME280;16347;53.232;6.556;2022-07-23T12:53:26;102011.72;;;22.58;46.38
29359;BME280;16347;53.232;6.556;2022-07-23T12:56:00;102008.50;;;22.41;46.92
29359;BME280;16347;53.232;6.556;2022-07-23T12:58:46;102007.91;;;22.66;46.94
29359;BME280;16347;53.232;6.556;2022-07-23T13:01:27;101993.88;;;22.87;46.37
29359;BME280;16347;53.232;6.556;2022-07-23T13:04:01;102009.47;;;22.81;45.10
29359;BME280;16347;53.232;6.556;2022-07-23T13:06:41;101997.75;;;22.92;45.88
29359;BME280;16347;53.232;6.556;2022-07-23T13:09:16;102013.78;;;23.17;47.65
29359;BME280;16347;53.232;6.556;2022-07-23T13:11:46;102005.66;;;23.15;45.50
29359;BME280;16347;53.232;6.556;2022-07-23T13:14:15;102001.16;;;23.27;45.42
29359;BME280;16347;53.232;6.556;2022-07-23T13:16:47;102004.38;;;23.50;46.77
29359;BME280;16347;53.232;6.556;2022-07-23T13:19:16;102003.06;;;23.66;46.00